createdAt,value
2023-01-26T00:00:05.392Z,2.90
2023-01-26T00:02:33.635Z,2.90
2023-01-26T00:05:01.824Z,2.80
2023-01-26T00:07:30.496Z,2.80
2023-01-26T00:10:00.190Z,3.00
2023-01-26T00:12:28.367Z,2.90
2023-01-26T00:14:56.487Z,2.80
2023-01-26T00:17:27.298Z,2.90
2023-01-26T00:19:57.461Z,2.90
2023-01-26T00:22:27.235Z,2.80
2023-01-26T00:24:55.306Z,2.70
2023-01-26T00:27:25.039Z,2.70
2023-01-26T00:29:53.279Z,2.70
2023-01-26T00:32:21.374Z,2.70
2023-01-26T00:34:49.905Z,2.70
2023-01-26T00:37:18.296Z,2.80
2023-01-26T00:39:46.527Z,2.80
2023-01-26T00:42:16.014Z,2.80
2023-01-26T00:44:45.781Z,2.70
2023-01-26T00:47:15.166Z,2.70
2023-01-26T00:49:43.440Z,2.60
2023-01-26T00:52:12.141Z,2.60
2023-01-26T00:54:40.432Z,2.60
2023-01-26T00:57:09.117Z,2.60
2023-01-26T00:59:37.217Z,2.60
2023-01-26T01:02:06.839Z,2.60
2023-01-26T01:04:34.971Z,2.70
2023-01-26T01:07:03.284Z,2.50
2023-01-26T01:09:31.416Z,2.70
2023-01-26T01:11:59.688Z,2.70
2023-01-26T01:14:27.908Z,2.60
2023-01-26T01:16:56.017Z,2.70
2023-01-26T01:19:25.560Z,2.60
2023-01-26T01:21:53.877Z,2.40
2023-01-26T01:24:22.122Z,2.50
2023-01-26T01:26:50.318Z,2.50
2023-01-26T01:29:18.395Z,2.60
2023-01-26T01:31:46.653Z,2.80
2023-01-26T01:34:14.757Z,2.70
2023-01-26T01:36:44.468Z,2.50
2023-01-26T01:39:12.754Z,2.60
2023-01-26T01:41:40.925Z,2.60
2023-01-26T01:44:20.725Z,2.60
2023-01-26T01:46:55.053Z,2.80
2023-01-26T01:49:27.741Z,2.80
2023-01-26T01:52:01.014Z,2.80
2023-01-26T01:54:33.750Z,2.70
2023-01-26T01:57:05.589Z,2.90
2023-01-26T01:59:34.595Z,2.70
2023-01-26T02:02:02.904Z,2.60
2023-01-26T02:04:31.199Z,2.70
2023-01-26T02:07:02.675Z,2.70
2023-01-26T02:09:52.254Z,2.60
2023-01-26T02:12:24.262Z,2.50
2023-01-26T02:14:54.195Z,2.60
2023-01-26T02:17:22.484Z,2.60
2023-01-26T02:19:58.630Z,2.60
2023-01-26T02:22:36.074Z,2.60
2023-01-26T02:25:09.113Z,2.60
2023-01-26T02:27:38.937Z,2.60
2023-01-26T02:30:09.221Z,2.60
2023-01-26T02:32:37.435Z,2.80
2023-01-26T02:35:05.997Z,2.80
2023-01-26T02:37:34.107Z,2.70
2023-01-26T02:40:06.553Z,2.70
2023-01-26T02:42:39.511Z,2.60
2023-01-26T02:45:10.692Z,2.60
2023-01-26T02:47:40.470Z,2.50
2023-01-26T02:50:08.798Z,2.60
2023-01-26T02:52:37.196Z,2.50
2023-01-26T02:55:25.218Z,2.50
2023-01-26T02:57:54.840Z,2.50
2023-01-26T03:00:27.044Z,2.60
2023-01-26T03:02:58.265Z,2.50
2023-01-26T03:05:27.184Z,2.50
2023-01-26T03:07:55.712Z,2.60
2023-01-26T03:10:24.392Z,2.60
2023-01-26T03:12:53.176Z,2.60
2023-01-26T03:15:42.821Z,2.60
2023-01-26T03:18:36.630Z,2.60
2023-01-26T03:21:24.870Z,2.70
2023-01-26T03:24:10.647Z,2.60
2023-01-26T03:26:56.351Z,2.60
2023-01-26T03:29:26.567Z,2.70
2023-01-26T03:31:55.053Z,2.80
2023-01-26T03:34:24.560Z,2.70
2023-01-26T03:36:52.578Z,2.80
2023-01-26T03:39:38.385Z,2.80
2023-01-26T03:42:25.304Z,2.70
2023-01-26T03:45:10.977Z,2.60
2023-01-26T03:47:56.988Z,2.70
2023-01-26T03:50:44.119Z,2.80
2023-01-26T03:53:34.120Z,2.70
2023-01-26T03:56:18.467Z,2.60
2023-01-26T03:58:47.050Z,2.60
2023-01-26T04:01:19.870Z,2.70
2023-01-26T04:04:07.445Z,2.70
2023-01-26T04:06:55.516Z,2.70
2023-01-26T04:09:24.129Z,2.70
2023-01-26T04:11:52.407Z,2.80
2023-01-26T04:14:50.020Z,2.70
2023-01-26T04:17:37.345Z,2.70
2023-01-26T04:20:24.493Z,2.70
2023-01-26T04:22:53.973Z,2.70
2023-01-26T04:25:22.938Z,2.60
2023-01-26T04:27:51.034Z,2.60
2023-01-26T04:30:20.221Z,2.60
2023-01-26T04:32:48.277Z,2.60
2023-01-26T04:35:16.497Z,2.50
2023-01-26T04:37:44.590Z,2.60
2023-01-26T04:40:14.935Z,2.60
2023-01-26T04:42:43.203Z,2.50
2023-01-26T04:45:12.049Z,2.50
2023-01-26T04:47:40.155Z,2.60
2023-01-26T04:50:09.517Z,2.80
2023-01-26T04:52:37.625Z,2.70
2023-01-26T04:55:06.393Z,2.60
2023-01-26T04:57:35.922Z,2.60
2023-01-26T05:00:04.982Z,2.60
2023-01-26T05:02:33.014Z,2.60
2023-01-26T05:05:01.084Z,2.80
2023-01-26T05:07:29.139Z,2.80
2023-01-26T05:09:57.577Z,2.60
2023-01-26T05:12:34.480Z,2.60
2023-01-26T05:15:04.199Z,2.60
2023-01-26T05:17:32.379Z,2.50
2023-01-26T05:20:00.569Z,2.50
2023-01-26T05:22:28.830Z,2.50
2023-01-26T05:24:56.989Z,2.50
2023-01-26T05:27:25.057Z,2.50
2023-01-26T05:29:55.076Z,2.70
2023-01-26T05:32:24.507Z,2.70
2023-01-26T05:34:52.626Z,2.80
2023-01-26T05:37:21.094Z,2.60
2023-01-26T05:39:49.218Z,2.60
2023-01-26T05:42:17.315Z,2.70
2023-01-26T05:44:45.398Z,2.70
2023-01-26T05:47:13.687Z,2.70
2023-01-26T05:49:43.366Z,2.70
2023-01-26T05:52:12.166Z,2.80
2023-01-26T05:54:40.312Z,2.80
2023-01-26T05:57:08.710Z,2.90
2023-01-26T05:59:36.878Z,2.90
2023-01-26T06:02:05.578Z,2.90
2023-01-26T06:04:33.722Z,2.80
2023-01-26T06:07:03.250Z,2.80
2023-01-26T06:09:31.492Z,2.70
2023-01-26T06:11:59.750Z,2.70
2023-01-26T06:14:28.069Z,2.70
2023-01-26T06:16:56.869Z,2.70
2023-01-26T06:19:25.229Z,2.70
2023-01-26T06:21:54.062Z,2.70
2023-01-26T06:24:24.321Z,2.70
2023-01-26T06:26:52.465Z,2.70
2023-01-26T06:29:20.624Z,2.80
2023-01-26T06:31:48.911Z,2.90
2023-01-26T06:34:17.205Z,2.80
2023-01-26T06:36:45.331Z,2.80
2023-01-26T06:39:14.347Z,2.80
2023-01-26T06:41:45.461Z,2.70
2023-01-26T06:44:13.835Z,2.70
2023-01-26T06:46:42.174Z,2.50
2023-01-26T06:49:10.899Z,2.60
2023-01-26T06:51:48.959Z,2.60
2023-01-26T06:54:17.177Z,2.50
2023-01-26T06:56:46.729Z,2.60
2023-01-26T06:59:15.113Z,2.60
2023-01-26T07:01:47.253Z,2.60
2023-01-26T07:04:15.689Z,2.60
2023-01-26T07:06:44.028Z,2.60
2023-01-26T07:09:12.623Z,2.60
2023-01-26T07:11:40.739Z,2.70
2023-01-26T07:14:10.163Z,2.50
2023-01-26T07:16:38.313Z,2.50
2023-01-26T07:19:06.432Z,2.50
2023-01-26T07:21:35.453Z,2.50
2023-01-26T07:24:03.752Z,2.60
2023-01-26T07:26:31.800Z,2.60
2023-01-26T07:28:59.860Z,2.60
2023-01-26T07:31:29.341Z,2.50
2023-01-26T07:33:57.411Z,2.50
2023-01-26T07:36:25.608Z,2.60
2023-01-26T07:38:53.745Z,2.50
2023-01-26T07:41:21.862Z,2.60
2023-01-26T07:43:51.762Z,2.40
2023-01-26T07:46:20.194Z,2.50
2023-01-26T07:48:49.936Z,2.50
2023-01-26T07:51:18.300Z,2.60
2023-01-26T07:53:49.985Z,2.60
2023-01-26T07:56:20.623Z,2.60
2023-01-26T07:58:52.558Z,2.50
2023-01-26T08:01:21.197Z,2.60
2023-01-26T08:03:52.112Z,2.50
2023-01-26T08:06:20.356Z,2.50
2023-01-26T08:08:51.564Z,2.40
2023-01-26T08:11:22.827Z,2.60
2023-01-26T08:13:51.102Z,2.50
2023-01-26T08:16:19.693Z,2.60
2023-01-26T08:18:50.482Z,2.60
2023-01-26T08:21:20.453Z,2.50
2023-01-26T08:23:51.139Z,2.60
2023-01-26T08:26:20.535Z,2.50
2023-01-26T08:28:48.833Z,2.50
2023-01-26T08:31:20.139Z,2.60
2023-01-26T08:33:51.375Z,2.60
2023-01-26T08:36:22.557Z,2.40
2023-01-26T08:38:51.970Z,2.40
2023-01-26T08:41:20.555Z,2.60
2023-01-26T08:43:49.558Z,2.60
2023-01-26T08:46:19.546Z,2.60
2023-01-26T08:48:47.658Z,2.50
2023-01-26T08:51:17.222Z,2.50
2023-01-26T08:53:45.369Z,2.40
2023-01-26T08:56:15.794Z,2.50
2023-01-26T08:58:44.227Z,2.50
2023-01-26T09:01:14.484Z,2.50
2023-01-26T09:03:43.296Z,2.50
2023-01-26T09:06:14.854Z,2.50
2023-01-26T09:08:44.555Z,2.50
2023-01-26T09:11:13.392Z,2.60
2023-01-26T09:13:42.453Z,2.60
2023-01-26T09:16:19.091Z,2.40
2023-01-26T09:18:50.862Z,2.50
2023-01-26T09:21:19.637Z,2.60
2023-01-26T09:23:49.402Z,2.60
2023-01-26T09:26:17.530Z,2.70
2023-01-26T09:28:46.225Z,2.60
2023-01-26T09:31:14.621Z,2.50
2023-01-26T09:33:44.917Z,2.50
2023-01-26T09:36:13.793Z,2.60
2023-01-26T09:38:41.852Z,2.60
2023-01-26T09:41:24.104Z,2.60
2023-01-26T09:43:54.488Z,2.70
2023-01-26T09:46:25.308Z,2.70
2023-01-26T09:49:07.064Z,2.70
2023-01-26T09:51:38.698Z,2.70
2023-01-26T09:54:17.193Z,2.70
2023-01-26T09:56:47.770Z,2.70
2023-01-26T09:59:29.245Z,2.60
2023-01-26T10:02:03.943Z,2.60
2023-01-26T10:04:37.014Z,2.70
2023-01-26T10:07:10.886Z,2.60
2023-01-26T10:09:40.975Z,2.50
2023-01-26T10:12:17.805Z,2.70
2023-01-26T10:14:51.062Z,2.80
2023-01-26T10:17:26.356Z,2.70
2023-01-26T10:19:58.464Z,2.70
2023-01-26T10:22:32.968Z,2.70
2023-01-26T10:25:01.600Z,2.60
2023-01-26T10:27:31.142Z,2.60
2023-01-26T10:29:59.394Z,2.60
2023-01-26T10:32:27.655Z,2.60
2023-01-26T10:34:56.079Z,2.60
2023-01-26T10:37:27.876Z,2.60
2023-01-26T10:40:01.090Z,2.50
2023-01-26T10:42:32.474Z,2.60
2023-01-26T10:45:02.738Z,2.60
2023-01-26T10:47:31.625Z,2.60
2023-01-26T10:50:21.849Z,2.70
2023-01-26T10:53:01.442Z,2.60
2023-01-26T10:55:30.516Z,2.60
2023-01-26T10:58:00.500Z,2.60
2023-01-26T11:00:30.828Z,2.70
2023-01-26T11:03:06.228Z,2.60
2023-01-26T11:05:34.525Z,2.60
2023-01-26T11:08:03.733Z,2.60
2023-01-26T11:10:34.067Z,2.60
2023-01-26T11:13:16.564Z,2.60
2023-01-26T11:15:47.705Z,2.70
2023-01-26T11:18:27.325Z,2.70
2023-01-26T11:21:01.860Z,2.70
2023-01-26T11:23:41.244Z,2.70
2023-01-26T11:26:39.609Z,2.60
2023-01-26T11:30:06.348Z,2.60
2023-01-26T11:32:43.671Z,2.50
2023-01-26T11:35:21.312Z,2.50
2023-01-26T11:37:54.016Z,2.50
2023-01-26T11:40:32.089Z,2.50
2023-01-26T11:43:21.246Z,2.50
2023-01-26T11:46:05.205Z,2.60
2023-01-26T11:48:46.466Z,2.50
2023-01-26T11:51:26.974Z,2.40
2023-01-26T11:54:11.725Z,2.30
2023-01-26T11:56:48.160Z,2.40
2023-01-26T11:59:21.585Z,2.60
2023-01-26T12:01:59.789Z,2.50
2023-01-26T12:04:28.607Z,2.50
2023-01-26T12:07:03.568Z,2.50
2023-01-26T12:09:38.681Z,2.50
2023-01-26T12:12:14.142Z,2.40
2023-01-26T12:14:49.289Z,2.50
2023-01-26T12:17:29.004Z,2.50
2023-01-26T12:20:05.542Z,2.50
2023-01-26T12:22:37.493Z,2.50
2023-01-26T12:25:23.940Z,2.40
2023-01-26T12:27:57.661Z,2.40
2023-01-26T12:30:35.561Z,2.40
2023-01-26T12:33:05.657Z,2.40
2023-01-26T12:35:46.553Z,2.50
2023-01-26T12:38:19.845Z,2.50
2023-01-26T12:40:59.745Z,2.50
2023-01-26T12:43:48.256Z,2.30
2023-01-26T12:46:18.477Z,2.40
2023-01-26T12:48:51.679Z,2.40
2023-01-26T12:51:24.182Z,2.50
2023-01-26T12:53:59.133Z,2.50
2023-01-26T12:56:33.061Z,2.50
2023-01-26T12:59:07.283Z,2.50
2023-01-26T13:01:41.135Z,2.50
2023-01-26T13:04:13.703Z,2.30
2023-01-26T13:06:42.704Z,2.30
2023-01-26T13:09:23.350Z,2.30
2023-01-26T13:11:53.899Z,2.30
2023-01-26T13:14:34.282Z,2.40
2023-01-26T13:17:39.810Z,2.50
2023-01-26T13:20:39.175Z,2.40
2023-01-26T13:23:41.571Z,2.40
2023-01-26T13:26:35.477Z,2.30
2023-01-26T13:29:33.313Z,2.30
2023-01-26T13:32:18.216Z,2.40
2023-01-26T13:34:53.639Z,2.40
2023-01-26T13:37:29.909Z,2.50
2023-01-26T13:40:01.579Z,2.50
2023-01-26T13:42:38.014Z,2.50
2023-01-26T13:45:18.195Z,2.50
2023-01-26T13:47:50.511Z,2.40
2023-01-26T13:50:30.355Z,2.40
2023-01-26T13:53:00.521Z,2.40
2023-01-26T13:55:31.760Z,2.30
2023-01-26T13:58:13.135Z,2.30
2023-01-26T14:00:41.875Z,2.20
2023-01-26T14:03:23.098Z,2.20
2023-01-26T14:05:56.830Z,2.10
2023-01-26T14:08:26.850Z,2.30
2023-01-26T14:10:55.170Z,2.30
2023-01-26T14:13:31.488Z,2.20
2023-01-26T14:16:01.256Z,2.20
2023-01-26T14:18:30.121Z,2.20
2023-01-26T14:21:04.159Z,2.10
2023-01-26T14:23:37.130Z,2.20
2023-01-26T14:26:07.604Z,2.20
2023-01-26T14:28:37.948Z,2.30
2023-01-26T14:31:11.935Z,2.40
2023-01-26T14:33:40.305Z,2.20
2023-01-26T14:36:15.104Z,2.20
2023-01-26T14:38:46.342Z,2.10
2023-01-26T14:41:19.981Z,2.20
2023-01-26T14:43:52.846Z,2.20
2023-01-26T14:46:29.112Z,2.20
2023-01-26T14:49:01.639Z,2.20
2023-01-26T14:51:30.554Z,2.20
2023-01-26T14:54:02.573Z,2.30
2023-01-26T14:56:35.360Z,2.30
2023-01-26T14:59:04.701Z,2.30
2023-01-26T15:01:33.542Z,2.20
2023-01-26T15:04:04.899Z,2.00
2023-01-26T15:06:33.940Z,2.10
2023-01-26T15:09:06.382Z,2.10
2023-01-26T15:11:54.905Z,2.10
2023-01-26T15:14:33.905Z,2.10
2023-01-26T15:17:02.064Z,2.10
2023-01-26T15:19:39.389Z,2.20
2023-01-26T15:22:17.886Z,2.20
2023-01-26T15:24:49.055Z,2.20
2023-01-26T15:27:17.181Z,2.00
2023-01-26T15:29:45.547Z,2.00
2023-01-26T15:32:30.217Z,2.10
2023-01-26T15:35:25.352Z,2.20
2023-01-26T15:38:02.711Z,2.10
2023-01-26T15:40:32.416Z,2.10
2023-01-26T15:43:13.336Z,2.20
2023-01-26T15:45:43.526Z,2.00
2023-01-26T15:48:12.851Z,2.10
2023-01-26T15:50:40.973Z,2.10
2023-01-26T15:53:14.445Z,2.10
2023-01-26T15:55:46.818Z,2.30
2023-01-26T15:58:15.218Z,2.30
2023-01-26T16:00:43.812Z,2.20
2023-01-26T16:03:15.996Z,2.20
2023-01-26T16:05:47.779Z,2.20
2023-01-26T16:08:16.371Z,2.10
2023-01-26T16:10:46.507Z,2.00
2023-01-26T16:13:17.811Z,2.00
2023-01-26T16:15:48.533Z,2.10
2023-01-26T16:18:17.121Z,2.10
2023-01-26T16:20:47.240Z,2.10
2023-01-26T16:23:19.815Z,2.10
2023-01-26T16:25:51.264Z,2.10
2023-01-26T16:28:19.986Z,2.10
2023-01-26T16:30:50.422Z,2.20
2023-01-26T16:33:22.418Z,2.20
2023-01-26T16:35:50.923Z,2.10
2023-01-26T16:38:19.237Z,2.20
2023-01-26T16:40:50.838Z,2.10
2023-01-26T16:43:24.074Z,2.10
2023-01-26T16:45:52.885Z,2.00
2023-01-26T16:48:22.390Z,2.00
2023-01-26T16:50:53.347Z,2.10
2023-01-26T16:53:26.908Z,2.00
2023-01-26T16:55:57.045Z,2.10
2023-01-26T16:58:26.744Z,2.10
2023-01-26T17:00:55.855Z,2.10
2023-01-26T17:03:25.047Z,2.20
2023-01-26T17:05:54.054Z,1.90
2023-01-26T17:08:22.602Z,2.10
2023-01-26T17:11:01.597Z,2.10
2023-01-26T17:13:32.423Z,2.10
2023-01-26T17:16:00.898Z,2.00
2023-01-26T17:18:29.155Z,2.00
2023-01-26T17:21:03.274Z,1.90
2023-01-26T17:23:32.217Z,1.80
2023-01-26T17:26:00.781Z,1.80
2023-01-26T17:28:29.544Z,1.80
2023-01-26T17:31:01.391Z,1.90
2023-01-26T17:33:30.573Z,1.90
2023-01-26T17:36:01.874Z,1.80
2023-01-26T17:38:29.991Z,1.70
2023-01-26T17:40:59.267Z,1.70
2023-01-26T17:43:27.985Z,1.80
2023-01-26T17:46:05.480Z,1.80
2023-01-26T17:48:34.101Z,1.80
2023-01-26T17:51:02.260Z,1.70
2023-01-26T17:53:30.559Z,1.80
2023-01-26T17:55:58.739Z,1.90
2023-01-26T17:58:26.932Z,1.90
2023-01-26T18:00:55.281Z,1.90
2023-01-26T18:03:26.415Z,1.90
2023-01-26T18:05:56.064Z,1.80
2023-01-26T18:08:25.265Z,1.80
2023-01-26T18:10:58.693Z,1.80
2023-01-26T18:13:27.073Z,1.90
2023-01-26T18:15:55.628Z,1.90
2023-01-26T18:18:26.631Z,1.80
2023-01-26T18:20:54.732Z,1.70
2023-01-26T18:23:23.907Z,1.80
2023-01-26T18:25:53.017Z,1.80
2023-01-26T18:28:21.150Z,1.80
2023-01-26T18:30:49.581Z,1.80
2023-01-26T18:33:17.804Z,1.70
2023-01-26T18:35:47.537Z,1.80
2023-01-26T18:38:15.655Z,1.60
2023-01-26T18:40:43.900Z,1.70
2023-01-26T18:43:11.985Z,1.60
2023-01-26T18:45:43.139Z,1.70
2023-01-26T18:48:11.346Z,1.60
2023-01-26T18:50:39.849Z,1.70
2023-01-26T18:53:09.791Z,1.70
2023-01-26T18:55:38.139Z,1.80
2023-01-26T18:58:06.513Z,1.70
2023-01-26T19:00:35.488Z,1.70
2023-01-26T19:03:03.596Z,1.80
2023-01-26T19:05:32.245Z,1.70
2023-01-26T19:08:09.963Z,1.60
2023-01-26T19:10:39.817Z,1.50
2023-01-26T19:13:08.924Z,1.50
2023-01-26T19:15:37.344Z,1.60
2023-01-26T19:18:05.938Z,1.60
2023-01-26T19:20:34.121Z,1.60
2023-01-26T19:23:04.298Z,1.60
2023-01-26T19:25:32.850Z,1.60
2023-01-26T19:28:02.307Z,1.60
2023-01-26T19:30:30.612Z,1.60
2023-01-26T19:33:16.313Z,1.80
2023-01-26T19:35:44.499Z,1.60
2023-01-26T19:38:12.702Z,1.70
2023-01-26T19:40:41.452Z,1.70
2023-01-26T19:43:10.900Z,1.70
2023-01-26T19:45:39.820Z,1.60
2023-01-26T19:48:08.468Z,1.60
2023-01-26T19:50:36.633Z,1.70
2023-01-26T19:53:07.571Z,1.60
2023-01-26T19:55:36.457Z,1.50
2023-01-26T19:58:04.729Z,1.40
2023-01-26T20:00:34.454Z,1.30
2023-01-26T20:03:03.930Z,1.40
2023-01-26T20:05:32.345Z,1.40
2023-01-26T20:08:00.720Z,1.40
2023-01-26T20:10:29.001Z,1.60
2023-01-26T20:12:58.722Z,1.60
2023-01-26T20:15:26.971Z,1.50
2023-01-26T20:17:56.809Z,1.40
2023-01-26T20:20:25.080Z,1.40
2023-01-26T20:22:55.899Z,1.40
2023-01-26T20:25:26.534Z,1.50
2023-01-26T20:27:56.431Z,1.40
2023-01-26T20:30:25.217Z,1.50
2023-01-26T20:32:55.178Z,1.60
2023-01-26T20:35:24.850Z,1.50
2023-01-26T20:37:53.061Z,1.50
2023-01-26T20:40:21.348Z,1.50
2023-01-26T20:42:49.652Z,1.40
2023-01-26T20:45:18.063Z,1.30
2023-01-26T20:47:46.631Z,1.30
2023-01-26T20:50:14.884Z,1.40
2023-01-26T20:52:44.575Z,1.30
2023-01-26T20:55:13.320Z,1.30
2023-01-26T20:57:42.015Z,1.40
2023-01-26T21:00:11.887Z,1.40
2023-01-26T21:02:41.754Z,1.40
2023-01-26T21:05:10.250Z,1.30
2023-01-26T21:07:38.560Z,1.30
2023-01-26T21:10:09.263Z,1.40
2023-01-26T21:12:38.227Z,1.40
2023-01-26T21:15:07.645Z,1.50
2023-01-26T21:17:35.807Z,1.40
2023-01-26T21:20:04.309Z,1.40
2023-01-26T21:22:32.511Z,1.30
2023-01-26T21:25:00.601Z,1.20
2023-01-26T21:27:30.215Z,1.20
2023-01-26T21:29:58.341Z,1.40
2023-01-26T21:32:27.561Z,1.20
2023-01-26T21:34:56.603Z,1.20
2023-01-26T21:37:25.208Z,1.40
2023-01-26T21:39:53.786Z,1.30
2023-01-26T21:42:22.763Z,1.20
2023-01-26T21:45:10.416Z,1.30
2023-01-26T21:47:38.556Z,1.40
2023-01-26T21:50:07.589Z,1.30
2023-01-26T21:52:53.358Z,1.20
2023-01-26T21:55:21.522Z,1.40
2023-01-26T21:58:07.345Z,1.30
2023-01-26T22:00:36.870Z,1.30
2023-01-26T22:03:05.606Z,1.30
2023-01-26T22:05:35.948Z,1.30
2023-01-26T22:08:04.124Z,1.30
2023-01-26T22:10:32.299Z,1.30
2023-01-26T22:13:00.495Z,1.30
2023-01-26T22:15:28.717Z,1.30
2023-01-26T22:17:58.301Z,1.40
2023-01-26T22:20:26.452Z,1.40
2023-01-26T22:22:54.648Z,1.40
2023-01-26T22:25:22.729Z,1.40
2023-01-26T22:27:50.947Z,1.40
2023-01-26T22:30:19.638Z,1.40
2023-01-26T22:32:47.689Z,1.20
2023-01-26T22:35:17.390Z,1.20
2023-01-26T22:37:46.033Z,1.20
2023-01-26T22:40:15.506Z,1.20
2023-01-26T22:42:43.715Z,1.20
2023-01-26T22:45:12.787Z,1.20
2023-01-26T22:47:41.448Z,1.00
2023-01-26T22:50:11.607Z,1.00
2023-01-26T22:52:41.421Z,1.00
2023-01-26T22:55:10.798Z,1.10
2023-01-26T22:57:39.150Z,1.10
2023-01-26T23:00:08.920Z,1.10
2023-01-26T23:02:37.058Z,1.20
2023-01-26T23:05:05.650Z,1.20
2023-01-26T23:07:33.845Z,1.20
2023-01-26T23:10:03.541Z,1.10
2023-01-26T23:12:32.040Z,1.10
2023-01-26T23:15:00.181Z,1.10
2023-01-26T23:17:28.495Z,1.00
2023-01-26T23:19:56.635Z,0.90
2023-01-26T23:22:24.923Z,1.00
2023-01-26T23:25:06.956Z,1.00
2023-01-26T23:27:36.454Z,0.90
2023-01-26T23:30:05.130Z,0.90
2023-01-26T23:32:34.128Z,0.90
2023-01-26T23:35:02.279Z,0.90
2023-01-26T23:37:30.485Z,1.10
2023-01-26T23:39:58.697Z,1.00
2023-01-26T23:42:26.852Z,0.90
2023-01-26T23:44:56.354Z,1.00
2023-01-26T23:47:24.645Z,1.00
2023-01-26T23:49:52.766Z,1.00
2023-01-26T23:52:20.973Z,1.00
2023-01-26T23:54:49.223Z,1.00
2023-01-26T23:57:17.453Z,1.10
2023-01-26T23:59:45.727Z,1.20
